Aeroporto :
LOGIN :

Iscrizione | Disclaimer

   EN    FR    IT 

 










Sommario :    VFR   VFR Marginale   IFR   IFR Intensivo   IFR Molto Intensivo
Visibilità : 
Base nubi : 
>= 8 km
>= 3000ft
5 / 8 km
1000 / 3000 ft
1500m / 5 km
500 / 1000 ft
800 / 1500m
200 / 500 ft
< 800m
< 200 ft
Simboli :   Temporali  Nebbia  Neve Forte  Precipitazioni Forti  Vento > 20 kt
SIGMETs :   Varie  Temporali  Ghiacco  Turbolenza  Onda orograficha  Ceneri Vulcaniche







- Altitudine del aeroporto : 79 ft
- Codice IATA : NSY


LICZ - Sigonella (Mil) Catania

ULTIMO METAR :
  • 261155Z 07009KT 9999 FEW050 33/14 Q1018 RMK FEW VIS MIN 9999 WIND THR28 10007KT WIND THR10 06008KT A3007 BLU

METARs OBSOLETI :
  • 261055Z 12007KT 9999 FEW040 33/15 Q1018 RMK FEW VIS MIN 9999 WIND THR28 06006KT WIND THR10 13007KT A3008 BLU
  • 260955Z 20002KT CAVOK 32/16 Q1018 RMK SKC VIS MIN 9999 WIND THR28 06006KT WIND THR10 16004KT A3008 BLU

TAF COR TAF LICZ
Valido dal 26 a 09 ore il 26 a 18 ore UTC


260801Z 2609/2618 29005KT 9999 FEW020
BECMG 2610/2612 09010KT
TEMPO 2613/2616 09015G25KT
Nessun NOTAM noto per questo aeroporto.



MetMap, La meteo Aeronautica in un colpo d'occhio ! - Copyright ORBIFLY Dicembre 2007 - Disclaimer

ORBIFLY MET'MAP TEAM :

Programmazione e sviluppo : Alexandra Zaïnal
Concezione e sviluppo : Baudouin d'Aumeries
Co-Programmazione e sviluppo : Marc-Olivier Méhu
Supporto tecnico e logistico : Manuel Goepfert
Aiuto per la traduzione : Arnaldo La Scala

Contatto : metmap@orbifly.com




FONTI E CREDITI :

   NOAA